createdAt,value
2022-11-29T00:01:39.482Z,83.28
2022-11-29T00:04:06.970Z,83.68
2022-11-29T00:06:35.611Z,70.30
2022-11-29T00:09:11.414Z,63.08
2022-11-29T00:11:59.197Z,60.40
2022-11-29T00:14:28.153Z,63.13
2022-11-29T00:17:01.759Z,63.60
2022-11-29T00:19:32.212Z,63.35
2022-11-29T00:22:00.831Z,76.32
2022-11-29T00:24:31.438Z,59.00
2022-11-29T00:26:59.091Z,61.80
2022-11-29T00:29:28.076Z,56.15
2022-11-29T00:31:55.537Z,58.92
2022-11-29T00:34:23.027Z,63.33
2022-11-29T00:36:50.440Z,71.30
2022-11-29T00:39:18.724Z,53.33
2022-11-29T00:41:46.137Z,54.47
2022-11-29T00:44:19.616Z,56.90
2022-11-29T00:46:48.486Z,57.45
2022-11-29T00:49:16.251Z,58.17
2022-11-29T00:51:43.599Z,59.47
2022-11-29T00:54:10.971Z,55.33
2022-11-29T00:56:38.446Z,56.83
2022-11-29T00:59:05.879Z,63.47
2022-11-29T01:01:33.272Z,71.93
2022-11-29T01:04:02.333Z,68.70
2022-11-29T01:06:29.836Z,50.47
2022-11-29T01:08:57.194Z,57.67
2022-11-29T01:11:27.742Z,50.38
2022-11-29T01:13:59.556Z,59.22
2022-11-29T01:16:30.191Z,52.53
2022-11-29T01:18:57.713Z,77.03
2022-11-29T01:21:25.187Z,57.90
2022-11-29T01:23:53.595Z,61.80
2022-11-29T01:26:25.224Z,54.88
2022-11-29T01:31:29.457Z,46.58
2022-11-29T01:34:00.995Z,38.80
2022-11-29T01:36:30.125Z,40.60
2022-11-29T01:39:01.225Z,39.90
2022-11-29T01:41:33.133Z,42.45
2022-11-29T01:44:11.514Z,47.90
2022-11-29T01:46:43.724Z,47.92
2022-11-29T01:49:16.705Z,42.10
2022-11-29T01:52:03.851Z,40.33
2022-11-29T01:54:36.878Z,60.67
2022-11-29T01:57:08.199Z,47.95
2022-11-29T01:59:42.170Z,45.88
2022-11-29T02:02:18.177Z,45.47
2022-11-29T02:04:48.273Z,59.42
2022-11-29T02:07:16.294Z,53.70
2022-11-29T02:09:43.756Z,301.20
2022-11-29T02:13:00.676Z,140.10
2022-11-29T02:15:54.989Z,96.32
2022-11-29T02:19:11.561Z,40.70
2022-11-29T02:22:06.490Z,97.85
2022-11-29T02:25:04.819Z,96.85
2022-11-29T02:28:06.112Z,151.55
2022-11-29T02:31:29.476Z,259.07
2022-11-29T02:34:25.534Z,244.75
2022-11-29T02:37:18.481Z,43.60
2022-11-29T02:40:07.745Z,43.67
2022-11-29T02:43:25.113Z,39.70
2022-11-29T02:46:20.419Z,145.70
2022-11-29T02:49:07.670Z,48.45
2022-11-29T02:51:50.983Z,46.80
2022-11-29T02:54:45.725Z,50.05
2022-11-29T02:57:29.398Z,42.83
2022-11-29T03:00:05.455Z,43.92
2022-11-29T03:02:49.921Z,54.40
2022-11-29T03:05:44.653Z,65.60
2022-11-29T03:08:23.501Z,64.82
2022-11-29T03:11:09.119Z,48.67
2022-11-29T03:13:57.046Z,56.92
2022-11-29T03:16:52.267Z,52.25
2022-11-29T03:20:13.186Z,44.00
2022-11-29T03:23:16.166Z,62.03
2022-11-29T03:26:10.491Z,75.57
2022-11-29T03:29:07.178Z,102.63
2022-11-29T03:31:47.562Z,92.88
2022-11-29T03:34:57.408Z,112.88
2022-11-29T03:37:52.901Z,69.70
2022-11-29T03:40:38.504Z,68.00
2022-11-29T03:43:20.125Z,61.47
2022-11-29T03:46:06.231Z,77.47
2022-11-29T03:48:42.656Z,68.50
2022-11-29T03:51:33.644Z,121.40
2022-11-29T03:54:15.015Z,144.50
2022-11-29T03:56:42.837Z,68.00
2022-11-29T03:59:31.543Z,68.35
2022-11-29T04:02:30.316Z,66.63
2022-11-29T04:05:25.337Z,112.88
2022-11-29T04:08:35.016Z,132.95
2022-11-29T04:12:03.522Z,58.83
2022-11-29T04:15:14.119Z,75.97
2022-11-29T04:18:17.556Z,85.75
2022-11-29T04:21:32.348Z,62.10
2022-11-29T04:24:39.097Z,70.53
2022-11-29T04:27:41.364Z,46.38
2022-11-29T04:30:23.571Z,54.50
2022-11-29T04:33:27.445Z,64.05
2022-11-29T04:36:34.501Z,72.68
2022-11-29T04:39:57.303Z,85.50
2022-11-29T04:42:49.122Z,51.70
2022-11-29T04:45:33.064Z,59.15
2022-11-29T04:48:30.393Z,57.80
2022-11-29T04:51:29.419Z,99.95
2022-11-29T04:54:35.150Z,92.13
2022-11-29T04:57:20.740Z,54.55
2022-11-29T05:00:09.787Z,93.68
2022-11-29T05:03:13.497Z,71.70
2022-11-29T05:06:03.109Z,98.43
2022-11-29T05:08:55.996Z,100.50
2022-11-29T05:11:49.980Z,175.00
2022-11-29T05:15:22.200Z,99.20
2022-11-29T05:18:21.101Z,102.72
2022-11-29T05:21:29.361Z,65.28
2022-11-29T05:24:17.264Z,136.98
2022-11-29T05:27:10.829Z,85.00
2022-11-29T05:30:02.523Z,82.28
2022-11-29T05:33:00.184Z,85.50
2022-11-29T05:35:53.559Z,67.72
2022-11-29T05:39:11.450Z,99.53
2022-11-29T05:42:09.757Z,134.20
2022-11-29T05:44:48.888Z,85.18
2022-11-29T05:47:31.750Z,90.90
2022-11-29T05:50:22.668Z,101.68
2022-11-29T05:53:10.507Z,67.35
2022-11-29T05:56:16.451Z,70.05
2022-11-29T05:58:56.799Z,96.68
2022-11-29T06:01:34.131Z,137.55
2022-11-29T06:04:18.756Z,101.53
2022-11-29T06:07:01.538Z,80.78
2022-11-29T06:09:49.887Z,72.07
2022-11-29T06:12:23.349Z,161.57
2022-11-29T06:15:31.029Z,84.57
2022-11-29T06:18:16.824Z,88.00
2022-11-29T06:21:14.572Z,90.63
2022-11-29T06:24:25.959Z,78.05
2022-11-29T06:27:25.116Z,70.82
2022-11-29T06:30:04.578Z,92.97
2022-11-29T06:33:06.204Z,100.43
2022-11-29T06:35:52.834Z,90.68
2022-11-29T06:38:32.038Z,76.93
2022-11-29T06:41:02.193Z,75.70
2022-11-29T06:43:31.668Z,86.50
2022-11-29T06:46:13.384Z,79.03
2022-11-29T06:49:02.580Z,77.82
2022-11-29T06:51:58.023Z,86.30
2022-11-29T06:54:45.121Z,98.07
2022-11-29T06:57:37.696Z,82.10
2022-11-29T07:00:11.685Z,106.70
2022-11-29T07:03:16.399Z,98.25
2022-11-29T07:05:44.561Z,76.57
2022-11-29T07:08:22.259Z,89.45
2022-11-29T07:10:54.849Z,81.63
2022-11-29T07:13:23.053Z,100.72
2022-11-29T07:16:33.650Z,88.55
2022-11-29T07:19:21.840Z,98.43
2022-11-29T07:22:22.609Z,115.85
2022-11-29T07:25:09.994Z,98.20
2022-11-29T07:28:09.801Z,89.63
2022-11-29T07:30:57.117Z,77.70
2022-11-29T07:34:14.574Z,73.38
2022-11-29T07:37:25.924Z,82.70
2022-11-29T07:40:19.965Z,83.05
2022-11-29T07:43:27.562Z,96.30
2022-11-29T07:45:57.153Z,89.40
2022-11-29T07:48:24.519Z,97.28
2022-11-29T07:50:51.904Z,81.60
2022-11-29T07:53:22.805Z,83.50
2022-11-29T07:55:50.956Z,91.32
2022-11-29T07:58:19.021Z,76.65
2022-11-29T08:00:46.633Z,80.40
2022-11-29T08:03:14.537Z,93.45
2022-11-29T08:05:47.381Z,77.93
2022-11-29T08:08:15.564Z,78.93
2022-11-29T08:10:43.332Z,66.13
2022-11-29T08:13:10.721Z,66.72
2022-11-29T08:15:45.422Z,65.97
2022-11-29T08:18:16.814Z,67.35
2022-11-29T08:20:46.086Z,70.60
2022-11-29T08:23:14.683Z,70.00
2022-11-29T08:25:42.398Z,57.40
2022-11-29T08:28:09.799Z,57.03
2022-11-29T08:30:37.339Z,58.95
2022-11-29T08:33:05.452Z,67.25
2022-11-29T08:35:35.478Z,65.97
2022-11-29T08:38:03.821Z,70.95
2022-11-29T08:40:31.256Z,71.20
2022-11-29T08:42:58.620Z,71.57
2022-11-29T08:45:26.058Z,66.18
2022-11-29T08:47:53.432Z,64.38
2022-11-29T08:50:21.373Z,60.65
2022-11-29T08:53:10.990Z,63.38
2022-11-29T08:55:42.776Z,62.40
2022-11-29T08:58:14.411Z,70.60
2022-11-29T09:00:46.759Z,66.30
2022-11-29T09:03:32.733Z,70.50
2022-11-29T09:06:11.937Z,63.20
2022-11-29T09:08:44.189Z,69.45
2022-11-29T09:11:16.016Z,63.63
2022-11-29T09:16:20.146Z,51.33
2022-11-29T09:18:51.881Z,57.90
2022-11-29T09:21:19.883Z,61.25
2022-11-29T09:23:47.868Z,68.38
2022-11-29T09:26:20.128Z,73.40
2022-11-29T09:28:47.586Z,66.47
2022-11-29T09:31:17.822Z,65.22
2022-11-29T09:33:45.757Z,59.08
2022-11-29T09:36:13.697Z,55.47
2022-11-29T09:38:41.500Z,63.22
2022-11-29T09:41:50.661Z,65.22
2022-11-29T09:45:05.821Z,60.50
2022-11-29T09:47:58.336Z,51.67
2022-11-29T09:50:43.165Z,65.45
2022-11-29T09:53:33.310Z,61.85
2022-11-29T09:56:23.864Z,65.47
2022-11-29T09:59:05.712Z,58.40
2022-11-29T10:04:19.017Z,58.90
2022-11-29T10:07:11.148Z,53.35
2022-11-29T10:09:51.953Z,58.03
2022-11-29T10:12:39.779Z,54.70
2022-11-29T10:15:23.007Z,56.97
2022-11-29T10:18:02.304Z,57.45
2022-11-29T10:20:40.643Z,58.92
2022-11-29T10:23:51.160Z,54.58
2022-11-29T10:26:20.716Z,49.53
2022-11-29T10:28:49.344Z,44.78
2022-11-29T10:31:32.572Z,42.92
2022-11-29T10:34:07.954Z,40.95
2022-11-29T10:37:10.655Z,48.30
2022-11-29T10:40:04.242Z,39.50
2022-11-29T10:42:52.371Z,54.13
2022-11-29T10:45:33.955Z,48.83
2022-11-29T10:48:11.786Z,50.65
2022-11-29T10:50:44.100Z,42.67
2022-11-29T10:53:25.743Z,50.30
2022-11-29T10:55:56.146Z,48.92
2022-11-29T10:58:29.633Z,46.13
2022-11-29T11:01:07.811Z,48.88
2022-11-29T11:03:42.947Z,60.65
2022-11-29T11:06:21.128Z,100.28
2022-11-29T11:08:56.282Z,47.65
2022-11-29T11:11:33.944Z,43.65
2022-11-29T11:14:24.077Z,48.55
2022-11-29T11:16:52.757Z,77.43
2022-11-29T11:19:34.441Z,67.32
2022-11-29T11:22:04.299Z,91.43
2022-11-29T11:24:39.707Z,63.70
2022-11-29T11:27:08.152Z,111.15
2022-11-29T11:29:41.901Z,80.38
2022-11-29T11:32:23.121Z,77.30
2022-11-29T11:35:00.989Z,59.78
2022-11-29T11:37:35.662Z,56.85
2022-11-29T11:40:39.363Z,60.90
2022-11-29T11:43:20.621Z,44.42
2022-11-29T11:45:54.780Z,49.53
2022-11-29T11:48:22.542Z,66.82
2022-11-29T11:50:54.402Z,58.03
2022-11-29T11:53:36.517Z,34.72
2022-11-29T11:56:14.206Z,33.00
2022-11-29T11:58:52.218Z,35.45
2022-11-29T12:01:35.919Z,35.47
2022-11-29T12:04:19.705Z,39.58
2022-11-29T12:07:38.721Z,53.30
2022-11-29T12:10:22.599Z,49.75
2022-11-29T12:12:52.089Z,48.13
2022-11-29T12:15:26.958Z,47.65
2022-11-29T12:18:25.394Z,42.53
2022-11-29T12:21:03.231Z,34.90
2022-11-29T12:23:30.599Z,37.65
2022-11-29T12:26:13.738Z,36.80
2022-11-29T12:28:47.761Z,35.50
2022-11-29T12:31:48.272Z,39.97
2022-11-29T12:34:42.770Z,44.72
2022-11-29T12:37:49.627Z,42.08
2022-11-29T12:41:10.061Z,44.03
2022-11-29T12:44:18.186Z,37.90
2022-11-29T12:50:24.566Z,36.13
2022-11-29T12:53:09.916Z,44.58
2022-11-29T12:56:06.017Z,43.15
2022-11-29T12:59:06.881Z,37.30
2022-11-29T13:02:14.755Z,38.10
2022-11-29T13:04:59.949Z,41.47
2022-11-29T13:08:03.546Z,39.83
2022-11-29T13:11:24.388Z,41.30
2022-11-29T13:17:34.255Z,44.28
2022-11-29T13:20:20.877Z,48.58
2022-11-29T13:23:01.563Z,43.58
2022-11-29T13:25:38.506Z,45.42
2022-11-29T13:28:17.975Z,48.60
2022-11-29T13:30:45.737Z,48.33
2022-11-29T13:33:31.178Z,53.45
2022-11-29T13:36:31.148Z,53.30
2022-11-29T13:39:40.140Z,50.50
2022-11-29T13:42:20.024Z,54.22
2022-11-29T13:45:06.103Z,48.22
2022-11-29T13:47:53.311Z,51.45
2022-11-29T13:50:45.927Z,45.13
2022-11-29T13:53:30.728Z,49.38
2022-11-29T13:56:01.265Z,44.05
2022-11-29T13:58:28.701Z,41.20
2022-11-29T14:01:05.579Z,51.40
2022-11-29T14:03:44.959Z,54.40
2022-11-29T14:06:21.761Z,48.67
2022-11-29T14:09:17.846Z,45.63
2022-11-29T14:11:42.338Z,44.03
2022-11-29T14:14:22.409Z,50.15
2022-11-29T14:17:03.696Z,45.40
2022-11-29T14:19:37.127Z,46.35
2022-11-29T14:22:22.021Z,58.17
2022-11-29T14:25:00.298Z,43.67
2022-11-29T14:27:27.573Z,44.63
2022-11-29T14:29:55.560Z,50.42
2022-11-29T14:32:56.420Z,46.63
2022-11-29T14:35:35.341Z,44.55
2022-11-29T14:38:30.691Z,46.53
2022-11-29T14:41:13.753Z,45.58
2022-11-29T14:43:41.561Z,44.55
2022-11-29T14:46:29.644Z,42.90
2022-11-29T14:48:59.791Z,44.05
2022-11-29T14:51:33.613Z,50.42
2022-11-29T14:54:19.895Z,46.58
2022-11-29T14:56:47.834Z,43.13
2022-11-29T14:59:48.864Z,46.08
2022-11-29T15:02:32.779Z,41.90
2022-11-29T15:05:37.964Z,51.25
2022-11-29T15:08:26.883Z,50.83
2022-11-29T15:11:04.536Z,50.15
2022-11-29T15:13:41.528Z,57.95
2022-11-29T15:16:33.016Z,48.67
2022-11-29T15:19:43.152Z,50.90
2022-11-29T15:22:26.697Z,54.90
2022-11-29T15:25:10.834Z,50.60
2022-11-29T15:27:54.813Z,47.83
2022-11-29T15:30:36.940Z,51.80
2022-11-29T15:33:18.452Z,53.47
2022-11-29T15:35:54.318Z,51.53
2022-11-29T15:38:24.321Z,51.00
2022-11-29T15:40:54.777Z,48.45
2022-11-29T15:43:34.849Z,56.17
2022-11-29T15:46:02.614Z,59.30
2022-11-29T15:48:32.456Z,50.80
2022-11-29T15:51:36.329Z,50.92
2022-11-29T15:54:29.129Z,52.42
2022-11-29T15:57:12.082Z,47.00
2022-11-29T15:59:46.468Z,53.72
2022-11-29T16:02:27.732Z,47.65
2022-11-29T16:05:01.335Z,49.75
2022-11-29T16:07:32.675Z,54.63
2022-11-29T16:10:11.742Z,54.97
2022-11-29T16:13:25.896Z,52.78
2022-11-29T16:16:16.888Z,51.85
2022-11-29T16:18:47.987Z,66.47
2022-11-29T16:21:28.264Z,60.90
2022-11-29T16:23:58.146Z,58.75
2022-11-29T16:26:35.830Z,55.08
2022-11-29T16:29:04.707Z,63.25
2022-11-29T16:31:37.043Z,57.20
2022-11-29T16:34:16.662Z,57.25
2022-11-29T16:36:44.187Z,52.80
2022-11-29T16:39:24.420Z,49.03
2022-11-29T16:42:29.273Z,44.38
2022-11-29T16:45:28.308Z,51.03
2022-11-29T16:47:59.723Z,52.03
2022-11-29T16:50:32.595Z,59.50
2022-11-29T16:53:38.984Z,58.17
2022-11-29T16:56:11.995Z,56.97
2022-11-29T16:59:25.666Z,57.40
2022-11-29T17:01:31.603Z,76.50
2022-11-29T17:04:00.652Z,79.05
2022-11-29T17:06:29.939Z,66.85
2022-11-29T17:08:59.312Z,95.78
2022-11-29T17:11:27.374Z,90.78
2022-11-29T17:13:54.918Z,79.35
2022-11-29T17:16:24.805Z,102.50
2022-11-29T17:18:53.680Z,87.13
2022-11-29T17:21:25.913Z,93.72
2022-11-29T17:23:54.340Z,106.60
2022-11-29T17:26:23.290Z,98.50
2022-11-29T17:28:51.960Z,81.72
2022-11-29T17:31:23.779Z,85.30
2022-11-29T17:33:51.554Z,85.80
2022-11-29T17:36:21.089Z,80.82
2022-11-29T17:38:48.974Z,79.55
2022-11-29T17:41:25.988Z,81.10
2022-11-29T17:43:55.609Z,84.13
2022-11-29T17:46:26.071Z,84.80
2022-11-29T17:48:55.059Z,83.22
2022-11-29T17:54:12.777Z,87.22
2022-11-29T17:56:40.234Z,71.75
2022-11-29T17:59:07.795Z,66.68
2022-11-29T18:01:36.116Z,71.20
2022-11-29T18:04:06.465Z,71.55
2022-11-29T18:06:37.739Z,70.43
2022-11-29T18:09:08.964Z,68.97
2022-11-29T18:11:48.136Z,64.43
2022-11-29T18:14:23.584Z,66.40
2022-11-29T18:16:51.830Z,68.05
2022-11-29T18:19:21.972Z,66.22
2022-11-29T18:21:50.250Z,63.78
2022-11-29T18:24:18.316Z,69.75
2022-11-29T18:26:46.981Z,58.80
2022-11-29T18:29:14.768Z,64.60
2022-11-29T18:31:45.217Z,71.78
2022-11-29T18:34:14.810Z,71.72
2022-11-29T18:36:48.345Z,73.78
2022-11-29T18:39:19.735Z,61.47
2022-11-29T18:41:49.996Z,67.60
2022-11-29T18:44:21.665Z,73.95
2022-11-29T18:49:18.176Z,72.93
2022-11-29T18:51:48.293Z,75.18
2022-11-29T18:54:18.482Z,69.38
2022-11-29T18:56:46.240Z,80.35
2022-11-29T18:59:17.439Z,75.28
2022-11-29T19:01:47.921Z,84.82
2022-11-29T19:04:19.726Z,70.32
2022-11-29T19:06:48.115Z,83.80
2022-11-29T19:09:21.816Z,85.68
2022-11-29T19:11:50.332Z,95.68
2022-11-29T19:14:18.950Z,89.15
2022-11-29T19:16:48.863Z,101.57
2022-11-29T19:19:19.920Z,77.63
2022-11-29T19:21:47.872Z,86.25
2022-11-29T19:24:18.201Z,99.75
2022-11-29T19:26:48.332Z,84.90
2022-11-29T19:29:16.361Z,94.00
2022-11-29T19:31:44.638Z,97.50
2022-11-29T19:34:12.065Z,111.70
2022-11-29T19:36:44.953Z,92.30
2022-11-29T19:39:17.724Z,106.07
2022-11-29T19:41:47.857Z,96.38
2022-11-29T19:44:15.448Z,88.35
2022-11-29T19:46:49.109Z,86.57
2022-11-29T19:49:17.209Z,96.45
2022-11-29T19:51:44.896Z,110.07
2022-11-29T19:54:13.371Z,100.72
2022-11-29T19:56:40.922Z,101.03
2022-11-29T19:59:09.134Z,105.82
2022-11-29T20:01:41.537Z,100.57
2022-11-29T20:04:13.503Z,98.97
2022-11-29T20:06:41.857Z,99.97
2022-11-29T20:09:10.487Z,102.35
2022-11-29T20:11:38.572Z,109.10
2022-11-29T20:14:08.134Z,99.55
2022-11-29T20:16:38.860Z,117.70
2022-11-29T20:19:12.659Z,109.50
2022-11-29T20:21:44.386Z,99.32
2022-11-29T20:26:48.229Z,102.60
2022-11-29T20:29:16.809Z,103.80
2022-11-29T20:31:50.005Z,93.78
2022-11-29T20:34:20.120Z,99.35
2022-11-29T20:37:07.479Z,103.05
2022-11-29T20:39:52.192Z,94.10
2022-11-29T20:42:49.565Z,113.43
2022-11-29T20:45:17.916Z,100.25
2022-11-29T20:48:13.058Z,94.22
2022-11-29T20:50:47.034Z,100.18
2022-11-29T20:53:43.503Z,102.57
2022-11-29T20:56:12.429Z,99.53
2022-11-29T20:58:40.119Z,100.63
2022-11-29T21:01:07.640Z,111.13
2022-11-29T21:03:35.812Z,110.72
2022-11-29T21:06:05.758Z,104.28
2022-11-29T21:08:34.875Z,105.93
2022-11-29T21:11:10.150Z,95.68
2022-11-29T21:13:38.592Z,102.63
2022-11-29T21:16:06.950Z,96.78
2022-11-29T21:18:34.782Z,99.70
2022-11-29T21:21:28.265Z,97.15
2022-11-29T21:24:00.702Z,99.28
2022-11-29T21:26:41.562Z,93.90
2022-11-29T21:29:09.455Z,103.65
2022-11-29T21:31:37.250Z,96.63
2022-11-29T21:34:04.782Z,92.00
2022-11-29T21:36:32.450Z,87.80
2022-11-29T21:39:04.865Z,90.45
2022-11-29T21:41:33.982Z,90.18
2022-11-29T21:44:08.993Z,92.43
2022-11-29T21:46:36.710Z,91.43
2022-11-29T21:49:04.953Z,99.05
2022-11-29T21:51:32.442Z,74.18
2022-11-29T21:54:01.103Z,85.57
2022-11-29T21:56:28.572Z,72.05
2022-11-29T21:58:56.055Z,77.07
2022-11-29T22:01:29.827Z,71.90
2022-11-29T22:03:57.419Z,73.20
2022-11-29T22:06:26.161Z,72.50
2022-11-29T22:08:53.865Z,75.43
2022-11-29T22:11:34.074Z,80.20
2022-11-29T22:14:19.129Z,84.22
2022-11-29T22:16:56.516Z,66.30
2022-11-29T22:19:33.562Z,71.35
2022-11-29T22:22:05.710Z,68.28
2022-11-29T22:24:36.674Z,64.93
2022-11-29T22:27:04.305Z,75.00
2022-11-29T22:29:31.768Z,66.43
2022-11-29T22:31:59.568Z,64.93
2022-11-29T22:34:28.167Z,86.47
2022-11-29T22:36:56.274Z,68.78
2022-11-29T22:39:24.086Z,65.55
2022-11-29T22:41:54.790Z,72.57
2022-11-29T22:44:24.057Z,75.13
2022-11-29T22:46:51.790Z,76.55
2022-11-29T22:49:19.406Z,68.45
2022-11-29T22:51:47.866Z,65.28
2022-11-29T22:54:16.400Z,62.67
2022-11-29T22:56:45.619Z,68.82
2022-11-29T22:59:13.927Z,65.55
2022-11-29T23:01:42.656Z,71.07
2022-11-29T23:04:12.435Z,61.28
2022-11-29T23:06:46.014Z,62.78
2022-11-29T23:09:22.052Z,56.65
2022-11-29T23:11:53.019Z,55.17
2022-11-29T23:14:22.321Z,58.53
2022-11-29T23:16:50.280Z,54.15
2022-11-29T23:19:18.341Z,59.58
2022-11-29T23:21:46.379Z,62.90
2022-11-29T23:24:15.218Z,59.05
2022-11-29T23:26:46.253Z,52.42
2022-11-29T23:29:17.971Z,62.90
2022-11-29T23:34:14.562Z,56.20
2022-11-29T23:36:42.324Z,54.92
2022-11-29T23:39:13.512Z,58.28
2022-11-29T23:41:41.078Z,52.40
2022-11-29T23:44:09.358Z,54.10
2022-11-29T23:46:36.950Z,50.90
2022-11-29T23:49:04.350Z,53.55
2022-11-29T23:51:31.812Z,50.88
2022-11-29T23:53:59.210Z,51.53
2022-11-29T23:56:26.765Z,52.03
2022-11-29T23:58:54.230Z,46.17
